Time;durP1;ratioP1;P1;durP2;ratioP2;P2;SDS_P1;SDS_P2;PMS_P1;PMS_P2;Temp;Humidity;BMP_temperature;BMP_pressure;BME280_temperature;BME280_humidity;BME280_pressure;Samples;Min_cycle;Max_cycle;Signal;HPM_P1;HPM_P2
2022/04/28 00:00:58;;;;;;;;;;;;;;;14.39;66.82;100257.28;4418813;32;34037;-82
2022/04/28 00:03:26;;;;;;;;;;;;;;;14.43;66.55;100254.31;4416972;32;32937;-82
2022/04/28 00:05:53;;;;;;;;;;;;;;;14.45;66.38;100254.00;4416281;32;33189;-82
2022/04/28 00:08:21;;;;;;;;;;;;;;;14.43;66.31;100256.00;4416588;32;33790;-83
2022/04/28 00:10:49;;;;;;;;;;;;;;;14.26;66.95;100257.87;4415072;32;34639;-83
2022/04/28 00:13:17;;;;;;;;;;;;;;;14.38;66.50;100251.25;4423376;32;33367;-83
2022/04/28 00:15:44;;;;;;;;;;;;;;;14.43;66.33;100252.47;4430534;32;34024;-80
2022/04/28 00:18:12;;;;;;;;;;;;;;;14.30;66.81;100262.75;4402133;32;34785;-82
2022/04/28 00:20:39;;;;;;;;;;;;;;;14.24;66.87;100262.53;4420081;32;34762;-82
2022/04/28 00:23:06;;;;;;;;;;;;;;;14.30;66.79;100253.87;4418926;32;34548;-81
2022/04/28 00:25:34;;;;;;;;;;;;;;;14.36;66.56;100256.78;4428972;32;33195;-83
2022/04/28 00:28:01;;;;;;;;;;;;;;;14.37;66.48;100261.13;4429279;32;34229;-83
2022/04/28 00:30:29;;;;;;;;;;;;;;;14.42;66.32;100255.31;4398889;32;33549;-83
2022/04/28 00:32:56;;;;;;;;;;;;;;;14.44;66.05;100251.47;4415613;32;34134;-83
2022/04/28 00:35:24;;;;;;;;;;;;;;;14.30;66.30;100252.03;4415478;32;32915;-81
2022/04/28 00:37:52;;;;;;;;;;;;;;;14.36;66.09;100258.59;4409767;32;31737;-83
2022/04/28 00:40:20;;;;;;;;;;;;;;;14.07;66.93;100258.84;4425642;32;33071;-83
2022/04/28 00:42:47;;;;;;;;;;;;;;;14.04;67.24;100258.34;4435333;32;34761;-84
2022/04/28 00:45:14;;;;;;;;;;;;;;;14.03;67.30;100264.66;4427578;32;31983;-83
2022/04/28 00:50:41;;;;;;;;;;;;;;;13.93;67.42;100264.75;4430501;32;34640;-84
2022/04/28 00:53:09;;;;;;;;;;;;;;;13.87;67.67;100264.53;4412989;32;34995;-84
2022/04/28 00:55:37;;;;;;;;;;;;;;;13.68;68.39;100267.37;4425038;32;34227;-84
2022/04/28 00:58:04;;;;;;;;;;;;;;;14.06;66.99;100267.06;4415698;32;33236;-83
2022/04/28 01:00:32;;;;;;;;;;;;;;;14.21;66.27;100262.84;4428741;32;36125;-81
2022/04/28 01:03:00;;;;;;;;;;;;;;;14.12;66.68;100264.59;4421365;32;34468;-85
2022/04/28 01:05:27;;;;;;;;;;;;;;;14.28;66.01;100259.41;4411763;32;33263;-83
2022/04/28 01:07:55;;;;;;;;;;;;;;;14.21;66.33;100262.84;4406439;32;33291;-82
2022/04/28 01:10:22;;;;;;;;;;;;;;;14.18;66.32;100265.84;4415210;32;35613;-84
2022/04/28 01:12:50;;;;;;;;;;;;;;;14.08;66.64;100267.72;4417455;32;35045;-84
2022/04/28 01:15:17;;;;;;;;;;;;;;;14.10;66.70;100249.69;4436795;32;34544;-81
2022/04/28 01:17:45;;;;;;;;;;;;;;;14.07;66.71;100258.03;4441799;32;33958;-83
2022/04/28 01:20:12;;;;;;;;;;;;;;;14.29;65.88;100254.88;4436061;32;34946;-83
2022/04/28 01:22:42;;;;;;;;;;;;;;;14.20;66.15;100250.47;4401703;32;33463;-83
2022/04/28 01:25:11;;;;;;;;;;;;;;;14.34;65.68;100242.69;4414993;32;33030;-84
2022/04/28 01:27:38;;;;;;;;;;;;;;;14.12;66.35;100247.69;4404352;32;33346;-83
2022/04/28 01:30:14;;;;;;;;;;;;;;;14.20;65.93;100245.97;4438390;32;34491;-83
2022/04/28 01:32:42;;;;;;;;;;;;;;;14.28;65.71;100246.03;4428454;32;34978;-83
2022/04/28 01:35:10;;;;;;;;;;;;;;;14.37;65.31;100246.91;4404792;32;33091;-83
2022/04/28 01:37:38;;;;;;;;;;;;;;;14.31;65.39;100240.34;4432735;32;33988;-82
2022/04/28 01:40:11;;;;;;;;;;;;;;;14.21;65.73;100246.78;4404480;32;34679;-83
2022/04/28 01:42:40;;;;;;;;;;;;;;;14.27;65.43;100249.69;4418665;32;34514;-83
2022/04/28 01:45:08;;;;;;;;;;;;;;;14.24;65.41;100247.31;4414163;32;32285;-81
2022/04/28 01:47:37;;;;;;;;;;;;;;;14.23;65.39;100242.97;4391620;32;32817;-84
2022/04/28 01:50:10;;;;;;;;;;;;;;;14.30;65.23;100236.00;4415067;32;36143;-83
2022/04/28 01:55:24;;;;;;;;;;;;;;;14.34;65.01;100241.88;4425914;32;32969;-83
2022/04/28 01:57:53;;;;;;;;;;;;;;;14.20;65.37;100237.94;4423117;32;34153;-80
2022/04/28 02:00:21;;;;;;;;;;;;;;;14.27;65.14;100239.00;4430361;32;35467;-82
2022/04/28 02:02:49;;;;;;;;;;;;;;;14.25;65.22;100245.50;4414052;32;34497;-81
2022/04/28 02:05:17;;;;;;;;;;;;;;;14.28;65.11;100237.13;4389533;32;33165;-82
2022/04/28 02:07:44;;;;;;;;;;;;;;;14.24;65.18;100243.81;4423175;32;34279;-83
2022/04/28 02:10:12;;;;;;;;;;;;;;;14.15;65.50;100250.06;4429644;32;34893;-81
2022/04/28 02:12:39;;;;;;;;;;;;;;;14.24;65.17;100244.63;4405473;32;33983;-83
2022/04/28 02:15:13;;;;;;;;;;;;;;;14.20;65.29;100242.44;4403487;32;33485;-82
2022/04/28 02:17:43;;;;;;;;;;;;;;;13.91;66.09;100250.72;4427675;32;31794;-83
2022/04/28 02:20:11;;;;;;;;;;;;;;;13.94;66.04;100249.53;4430007;32;34789;-82
2022/04/28 02:22:39;;;;;;;;;;;;;;;13.91;66.25;100245.38;4407559;32;35091;-83
2022/04/28 02:25:07;;;;;;;;;;;;;;;14.08;65.57;100238.31;4419873;32;33354;-83
2022/04/28 02:27:35;;;;;;;;;;;;;;;14.10;65.38;100242.50;4402567;32;34020;-83
2022/04/28 02:30:03;;;;;;;;;;;;;;;14.13;65.32;100236.00;4420844;32;34059;-83
2022/04/28 02:33:08;;;;;;;;;;;;;;;14.15;65.14;100232.16;4420216;32;35102;-83
2022/04/28 02:35:19;;;;;;;;;;;;;;;14.15;65.20;100225.97;4430289;32;32994;-83
2022/04/28 02:37:46;;;;;;;;;;;;;;;14.16;64.99;100231.16;4439308;32;35019;-83
2022/04/28 02:40:16;;;;;;;;;;;;;;;14.08;65.36;100241.81;4414264;32;34819;-82
2022/04/28 02:42:44;;;;;;;;;;;;;;;14.15;65.03;100228.66;4431673;32;34797;-81
2022/04/28 02:45:11;;;;;;;;;;;;;;;14.11;65.05;100235.31;4433435;32;34501;-83
2022/04/28 02:47:40;;;;;;;;;;;;;;;14.12;64.85;100228.94;4416286;32;34010;-82
2022/04/28 02:50:11;;;;;;;;;;;;;;;14.18;64.71;100236.41;4416436;32;34638;-83
2022/04/28 02:52:39;;;;;;;;;;;;;;;14.12;64.78;100229.81;4406335;32;36002;-83
2022/04/28 02:55:07;;;;;;;;;;;;;;;14.13;64.67;100230.66;4416136;32;32827;-83
2022/04/28 02:57:35;;;;;;;;;;;;;;;14.17;64.51;100232.88;4429489;32;33575;-83
2022/04/28 03:00:04;;;;;;;;;;;;;;;14.08;64.77;100238.31;4425517;32;34274;-83
2022/04/28 03:02:32;;;;;;;;;;;;;;;14.15;64.47;100229.47;4433969;32;34456;-83
2022/04/28 03:05:03;;;;;;;;;;;;;;;14.15;64.41;100229.47;4416071;32;33094;-82
2022/04/28 03:13:03;;;;;;;;;;;;;;;14.10;64.26;100236.31;4419230;32;32563;-81
2022/04/28 03:15:31;;;;;;;;;;;;;;;14.08;64.30;100243.66;4411935;32;32817;-82
2022/04/28 03:17:59;;;;;;;;;;;;;;;14.09;64.09;100234.63;4418606;32;33965;-81
2022/04/28 03:20:27;;;;;;;;;;;;;;;13.99;64.33;100244.59;4435649;32;34266;-82
2022/04/28 03:22:55;;;;;;;;;;;;;;;13.88;64.48;100242.16;4420075;32;34341;-83
2022/04/28 03:25:22;;;;;;;;;;;;;;;13.91;64.48;100252.53;4429569;32;32830;-80
2022/04/28 03:27:50;;;;;;;;;;;;;;;13.88;64.44;100251.00;4421957;32;33862;-84
2022/04/28 03:30:17;;;;;;;;;;;;;;;13.97;64.22;100254.59;4415864;32;37016;-82
2022/04/28 03:32:46;;;;;;;;;;;;;;;13.92;64.30;100251.53;4440323;32;33150;-83
2022/04/28 03:35:14;;;;;;;;;;;;;;;13.74;64.65;100256.91;4405589;32;31834;-82
2022/04/28 03:37:44;;;;;;;;;;;;;;;13.68;64.93;100251.34;4418052;32;33901;-83
2022/04/28 03:40:11;;;;;;;;;;;;;;;13.83;64.37;100256.00;4432693;32;36755;-84
2022/04/28 03:42:39;;;;;;;;;;;;;;;13.61;64.94;100255.59;4397906;32;787263;-80
2022/04/28 03:45:07;;;;;;;;;;;;;;;13.60;64.98;100260.09;4421296;32;33175;-80
2022/04/28 03:47:38;;;;;;;;;;;;;;;13.57;65.02;100263.09;4420322;32;35793;-83
2022/04/28 03:50:06;;;;;;;;;;;;;;;13.50;65.30;100264.69;4403661;32;34420;-83
2022/04/28 03:52:34;;;;;;;;;;;;;;;13.18;66.71;100271.50;4417452;32;33585;-83
2022/04/28 03:55:01;;;;;;;;;;;;;;;13.08;67.15;100268.88;4434033;32;32820;-83
2022/04/28 03:57:29;;;;;;;;;;;;;;;13.31;66.36;100264.81;4432275;32;34048;-82
2022/04/28 03:59:57;;;;;;;;;;;;;;;13.47;65.72;100272.16;4415246;32;35613;-82
2022/04/28 04:02:26;;;;;;;;;;;;;;;13.58;65.36;100274.63;4415380;32;34112;-82
2022/04/28 04:04:54;;;;;;;;;;;;;;;13.53;65.53;100285.78;4402857;32;32687;-83
2022/04/28 04:07:21;;;;;;;;;;;;;;;13.21;66.72;100277.37;4419466;32;34952;-82
2022/04/28 04:09:51;;;;;;;;;;;;;;;13.03;67.69;100289.03;4415478;32;33098;-81
2022/04/28 04:12:20;;;;;;;;;;;;;;;13.16;67.19;100281.50;4434439;32;33726;-82
2022/04/28 04:14:48;;;;;;;;;;;;;;;13.34;66.47;100285.91;4425962;32;32075;-81
2022/04/28 04:17:17;;;;;;;;;;;;;;;13.18;67.25;100284.84;4417033;32;35520;-82
2022/04/28 04:19:45;;;;;;;;;;;;;;;13.22;66.91;100286.25;4429575;32;34396;-82
2022/04/28 04:22:12;;;;;;;;;;;;;;;13.10;66.78;100284.75;4419936;32;33741;-82
2022/04/28 04:24:43;;;;;;;;;;;;;;;13.19;66.88;100291.87;4404926;32;32283;-79
2022/04/28 04:27:11;;;;;;;;;;;;;;;13.21;66.90;100287.25;4416013;32;34893;-82
2022/04/28 04:29:40;;;;;;;;;;;;;;;13.25;66.86;100284.13;4410224;32;34195;-83
2022/04/28 04:34:53;;;;;;;;;;;;;;;13.01;67.79;100282.97;4358370;26;35380;-81
2022/04/28 04:37:26;;;;;;;;;;;;;;;13.51;66.04;100286.91;4433023;32;34497;-82
2022/04/28 04:39:58;;;;;;;;;;;;;;;13.23;67.05;100287.94;4433141;32;35326;-82
2022/04/28 06:26:49;;;;;;;;;;;;;;;15.13;63.18;100340.59;4454094;26;33924;-83
2022/04/28 06:29:18;;;;;;;;;;;;;;;15.11;63.63;100351.47;4450108;32;34828;-82
2022/04/28 06:31:45;;;;;;;;;;;;;;;15.08;64.12;100359.84;4432917;32;35215;-82
2022/04/28 06:34:14;;;;;;;;;;;;;;;14.92;63.92;100356.22;4420060;32;35725;-82
2022/04/28 06:36:45;;;;;;;;;;;;;;;15.20;62.56;100360.41;4420035;32;32127;-80
2022/04/28 06:39:13;;;;;;;;;;;;;;;15.32;62.83;100359.97;4430194;32;34595;-79
2022/04/28 06:41:41;;;;;;;;;;;;;;;15.45;62.59;100357.72;4447283;32;34542;-82
2022/04/28 06:44:09;;;;;;;;;;;;;;;15.28;62.75;100363.97;4444801;32;35339;-81
2022/04/28 06:46:40;;;;;;;;;;;;;;;15.44;62.03;100358.72;4446875;32;33255;-82
2022/04/28 06:49:12;;;;;;;;;;;;;;;15.65;61.49;100361.78;4431754;32;34810;-82
2022/04/28 06:51:45;;;;;;;;;;;;;;;15.57;61.26;100363.63;4433727;32;35813;-79
2022/04/28 06:54:12;;;;;;;;;;;;;;;15.56;60.37;100367.28;4433574;32;33963;-82
2022/04/28 06:56:43;;;;;;;;;;;;;;;15.48;61.35;100359.22;4420946;32;32495;-82
2022/04/28 06:59:14;;;;;;;;;;;;;;;15.57;60.68;100367.13;4418150;32;34487;-82
2022/04/28 07:01:43;;;;;;;;;;;;;;;15.54;60.33;100361.25;4445520;32;35350;-81
2022/04/28 07:04:10;;;;;;;;;;;;;;;15.52;59.31;100361.44;4446538;32;33962;-81
2022/04/28 07:06:38;;;;;;;;;;;;;;;15.68;59.48;100358.78;4446805;32;34585;-81
2022/04/28 07:09:06;;;;;;;;;;;;;;;15.74;59.76;100360.81;4430696;32;34326;-81
2022/04/28 07:11:33;;;;;;;;;;;;;;;15.67;59.03;100359.78;4446503;32;35423;-81
2022/04/28 07:14:03;;;;;;;;;;;;;;;15.72;58.79;100362.84;4429816;32;33814;-81
2022/04/28 07:16:36;;;;;;;;;;;;;;;15.75;60.22;100365.19;4446883;32;32777;-79
2022/04/28 07:19:06;;;;;;;;;;;;;;;15.67;59.68;100367.84;4416821;32;34026;-81
2022/04/28 07:21:34;;;;;;;;;;;;;;;15.76;59.93;100371.41;4445758;32;35492;-81
2022/04/28 07:24:02;;;;;;;;;;;;;;;15.74;59.22;100368.87;4432386;32;32979;-80
2022/04/28 07:26:29;;;;;;;;;;;;;;;15.66;59.27;100365.31;4431875;32;34249;-81
2022/04/28 07:28:57;;;;;;;;;;;;;;;15.54;59.83;100369.28;4429885;32;32362;-80
2022/04/28 07:31:26;;;;;;;;;;;;;;;15.75;59.67;100372.37;4432357;32;35000;-81
2022/04/28 07:33:58;;;;;;;;;;;;;;;15.84;59.48;100372.25;4420819;32;33420;-79
2022/04/28 07:36:29;;;;;;;;;;;;;;;15.70;60.49;100388.12;4433006;32;35677;-81
2022/04/28 07:39:13;;;;;;;;;;;;;;;15.56;61.75;100384.22;4443215;32;36191;-82
2022/04/28 07:41:42;;;;;;;;;;;;;;;15.92;60.00;100382.16;4444725;32;35841;-79
2022/04/28 07:44:10;;;;;;;;;;;;;;;15.95;59.38;100381.84;4446686;32;34857;-79
2022/04/28 07:46:38;;;;;;;;;;;;;;;15.88;60.07;100387.00;4446737;32;33436;-81
2022/04/28 07:49:05;;;;;;;;;;;;;;;16.23;59.52;100384.06;4417659;32;34959;-82
2022/04/28 07:51:33;;;;;;;;;;;;;;;16.22;60.47;100385.06;4430383;32;34223;-81
2022/04/28 07:54:03;;;;;;;;;;;;;;;16.57;58.13;100381.25;4420461;32;34304;-80
2022/04/28 07:56:30;;;;;;;;;;;;;;;16.76;58.54;100389.81;4446365;32;34040;-80
2022/04/28 07:58:58;;;;;;;;;;;;;;;16.65;58.61;100384.81;4432750;32;34514;-81
2022/04/28 08:01:46;;;;;;;;;;;;;;;17.17;59.11;100382.53;4431869;32;36049;-79
2022/04/28 08:04:14;;;;;;;;;;;;;;;17.11;54.98;100385.91;4419790;32;34500;-80
2022/04/28 08:06:43;;;;;;;;;;;;;;;17.42;55.36;100381.47;4432050;32;33420;-80
2022/04/28 08:09:10;;;;;;;;;;;;;;;17.52;55.70;100386.50;4427177;32;33970;-81
2022/04/28 08:11:40;;;;;;;;;;;;;;;17.65;55.69;100392.16;4416166;32;34563;-81
2022/04/28 08:14:07;;;;;;;;;;;;;;;17.77;56.88;100395.28;4429538;32;34152;-81
2022/04/28 08:16:35;;;;;;;;;;;;;;;17.85;55.24;100404.16;4430810;32;32574;-79
2022/04/28 08:19:04;;;;;;;;;;;;;;;17.61;55.49;100398.06;4445039;32;33773;-81
2022/04/28 08:21:32;;;;;;;;;;;;;;;17.60;52.57;100404.44;4415157;32;35050;-82
2022/04/28 08:23:59;;;;;;;;;;;;;;;17.21;53.48;100402.69;4429685;32;34207;-80
2022/04/28 08:26:27;;;;;;;;;;;;;;;17.30;54.22;100399.81;4443776;32;33435;-83
2022/04/28 08:28:54;;;;;;;;;;;;;;;17.69;54.33;100411.47;4427201;32;34378;-79
2022/04/28 08:31:23;;;;;;;;;;;;;;;17.43;53.79;100402.81;4445201;32;34754;-81
2022/04/28 08:33:50;;;;;;;;;;;;;;;17.70;53.41;100403.25;4445146;32;35214;-81
2022/04/28 08:36:25;;;;;;;;;;;;;;;17.55;54.01;100407.66;4445731;32;34796;-81
2022/04/28 08:38:53;;;;;;;;;;;;;;;17.95;52.27;100407.47;4402697;32;33023;-79
2022/04/28 08:41:31;;;;;;;;;;;;;;;18.25;53.30;100403.91;4429409;32;35017;-81
2022/04/28 08:44:04;;;;;;;;;;;;;;;18.45;50.76;100409.72;4424583;32;34812;-81
2022/04/28 08:49:18;;;;;;;;;;;;;;;18.60;51.53;100407.94;4443629;32;34851;-80
2022/04/28 08:51:47;;;;;;;;;;;;;;;18.70;51.52;100406.63;4427717;32;33819;-78
2022/04/28 08:54:15;;;;;;;;;;;;;;;18.69;52.41;100406.84;4429645;32;34840;-79
2022/04/28 08:56:42;;;;;;;;;;;;;;;18.82;49.89;100410.59;4445052;32;34193;-80
2022/04/28 08:59:10;;;;;;;;;;;;;;;18.80;49.22;100418.00;4415495;32;34182;-80
2022/04/28 09:01:37;;;;;;;;;;;;;;;18.55;50.41;100416.56;4429603;32;35274;-79
2022/04/28 09:04:12;;;;;;;;;;;;;;;18.76;48.65;100419.41;4443639;32;32934;-81
2022/04/28 09:06:43;;;;;;;;;;;;;;;18.61;51.11;100428.47;4444573;32;32141;-80
2022/04/28 09:09:15;;;;;;;;;;;;;;;18.63;51.06;100423.72;4431731;32;33100;-80
2022/04/28 09:11:59;;;;;;;;;;;;;;;18.91;51.03;100423.00;4432180;32;33614;-81
2022/04/28 09:14:31;;;;;;;;;;;;;;;18.95;51.59;100424.28;4442794;32;33929;-79
2022/04/28 09:17:03;;;;;;;;;;;;;;;19.04;49.83;100417.81;4430797;32;32697;-79
2022/04/28 09:19:34;;;;;;;;;;;;;;;18.85;50.71;100421.00;4443292;32;34264;-80
2022/04/28 09:22:08;;;;;;;;;;;;;;;19.06;50.63;100420.31;4445367;32;35423;-80
2022/04/28 09:24:39;;;;;;;;;;;;;;;19.24;50.82;100412.75;4442752;32;36077;-80
2022/04/28 09:27:07;;;;;;;;;;;;;;;19.19;48.66;100423.25;4431302;32;32941;-81
2022/04/28 09:29:36;;;;;;;;;;;;;;;19.33;49.25;100417.03;4427893;32;33569;-80
2022/04/28 09:32:06;;;;;;;;;;;;;;;19.55;49.38;100411.53;4431595;32;35324;-80
2022/04/28 09:34:55;;;;;;;;;;;;;;;19.83;49.70;100414.41;4421297;32;35012;-79
2022/04/28 09:37:27;;;;;;;;;;;;;;;19.72;49.57;100423.81;4431915;32;32410;-80
2022/04/28 09:42:42;;;;;;;;;;;;;;;19.61;48.97;100423.44;4434690;32;35330;-81
2022/04/28 09:45:11;;;;;;;;;;;;;;;19.70;47.43;100433.13;4444900;32;34257;-81
2022/04/28 09:47:40;;;;;;;;;;;;;;;19.35;47.58;100431.19;4432910;32;34097;-81
2022/04/28 09:50:12;;;;;;;;;;;;;;;19.44;50.70;100422.81;4443995;32;36403;-79
2022/04/28 09:52:42;;;;;;;;;;;;;;;19.75;49.78;100428.00;4432945;32;34839;-79
2022/04/28 09:55:10;;;;;;;;;;;;;;;19.73;47.39;100428.19;4430342;32;33937;-81
2022/04/28 09:57:41;;;;;;;;;;;;;;;19.70;46.68;100422.31;4447098;32;31969;-80
2022/04/28 10:00:10;;;;;;;;;;;;;;;19.94;46.54;100428.28;4430780;32;33781;-81
2022/04/28 10:02:40;;;;;;;;;;;;;;;19.96;47.80;100425.38;4433561;32;34371;-80
2022/04/28 10:05:08;;;;;;;;;;;;;;;19.86;46.72;100422.12;4430797;32;34627;-79
2022/04/28 10:07:37;;;;;;;;;;;;;;;19.89;46.04;100424.44;4431073;32;32609;-80
2022/04/28 10:10:05;;;;;;;;;;;;;;;20.23;44.86;100416.59;4432606;32;34692;-81
2022/04/28 10:12:33;;;;;;;;;;;;;;;19.89;45.98;100428.00;4420420;32;36342;-81
2022/04/28 10:15:01;;;;;;;;;;;;;;;20.19;45.35;100426.94;4418635;32;33467;-81
2022/04/28 10:17:30;;;;;;;;;;;;;;;20.19;45.29;100418.81;4432992;32;32936;-80
2022/04/28 10:19:59;;;;;;;;;;;;;;;20.19;45.10;100426.94;4432789;32;33392;-79
2022/04/28 10:22:33;;;;;;;;;;;;;;;20.28;43.05;100423.09;4421887;32;34829;-81
2022/04/28 10:34:14;;;;;;;;;;;;;;;20.69;38.62;100408.75;4412102;32;34965;-80
2022/04/28 10:36:51;;;;;;;;;;;;;;;20.97;39.98;100409.66;4388340;32;32965;-81
2022/04/28 10:39:31;;;;;;;;;;;;;;;20.86;40.07;100409.34;4411832;32;32412;-80
2022/04/28 10:41:59;;;;;;;;;;;;;;;20.88;41.66;100412.72;4388256;32;32525;-81
2022/04/28 10:44:29;;;;;;;;;;;;;;;20.75;40.20;100418.81;4411601;32;35129;-81
2022/04/28 10:47:00;;;;;;;;;;;;;;;21.29;39.42;100416.34;4413447;32;34120;-81
2022/04/28 10:49:35;;;;;;;;;;;;;;;21.36;39.25;100411.81;4381048;32;33325;-82
2022/04/28 10:52:04;;;;;;;;;;;;;;;21.49;40.92;100414.59;4401329;32;33905;-81
2022/04/28 10:54:43;;;;;;;;;;;;;;;21.28;41.14;100418.25;4387992;32;35120;-81
2022/04/28 10:57:12;;;;;;;;;;;;;;;21.51;43.08;100424.22;4400884;32;35801;-81
2022/04/28 10:59:40;;;;;;;;;;;;;;;21.19;44.06;100424.84;4410867;32;33534;-81
2022/04/28 11:02:13;;;;;;;;;;;;;;;21.44;43.91;100417.09;4400397;32;33788;-80
2022/04/28 11:05:03;;;;;;;;;;;;;;;21.31;42.85;100425.09;4411356;32;35117;-81
2022/04/28 11:07:31;;;;;;;;;;;;;;;21.56;42.61;100434.44;4401261;32;34622;-81
2022/04/28 11:10:06;;;;;;;;;;;;;;;21.20;41.52;100437.31;4427535;32;33945;-82
2022/04/28 11:12:37;;;;;;;;;;;;;;;21.18;40.82;100442.06;4432328;32;33275;-80
2022/04/28 11:15:07;;;;;;;;;;;;;;;21.14;41.98;100431.84;4431562;32;35402;-82
2022/04/28 11:17:36;;;;;;;;;;;;;;;20.68;41.18;100433.31;4425470;32;33939;-78
2022/04/28 11:20:10;;;;;;;;;;;;;;;20.82;41.93;100432.38;4430998;32;33139;-82
2022/04/28 11:22:43;;;;;;;;;;;;;;;20.61;42.31;100435.09;4446706;32;33672;-81
2022/04/28 11:25:10;;;;;;;;;;;;;;;20.84;43.00;100433.03;4444269;32;36628;-81
2022/04/28 11:27:38;;;;;;;;;;;;;;;20.69;41.72;100437.69;4416369;32;32751;-81
2022/04/28 11:30:06;;;;;;;;;;;;;;;21.04;40.96;100439.47;4445354;32;32783;-81
2022/04/28 11:32:34;;;;;;;;;;;;;;;20.93;41.59;100440.84;4443356;32;34335;-81
2022/04/28 11:35:01;;;;;;;;;;;;;;;20.96;42.43;100439.63;4428951;32;34720;-79
2022/04/28 11:37:29;;;;;;;;;;;;;;;21.18;42.63;100446.66;4445666;32;35412;-80
2022/04/28 11:39:56;;;;;;;;;;;;;;;21.23;41.43;100444.19;4445993;32;33396;-81
2022/04/28 11:42:48;;;;;;;;;;;;;;;21.52;41.01;100444.84;4433487;32;33868;-82
2022/04/28 11:45:15;;;;;;;;;;;;;;;21.47;40.31;100455.44;4429481;32;34942;-82
2022/04/28 11:47:44;;;;;;;;;;;;;;;21.47;40.56;100446.47;4429033;32;36536;-82
2022/04/28 11:50:19;;;;;;;;;;;;;;;21.44;41.46;100455.81;4418549;32;31449;-81
2022/04/28 11:52:56;;;;;;;;;;;;;;;21.59;39.61;100447.56;4443674;32;33935;-81
2022/04/28 11:55:25;;;;;;;;;;;;;;;21.69;40.02;100451.63;4416078;32;33625;-82
2022/04/28 11:57:54;;;;;;;;;;;;;;;21.74;39.97;100449.16;4419867;32;35471;-80
2022/04/28 12:00:24;;;;;;;;;;;;;;;21.91;40.54;100442.38;4421802;32;31377;-80
2022/04/28 12:02:55;;;;;;;;;;;;;;;22.15;39.83;100449.12;4445902;32;33413;-79
2022/04/28 12:05:25;;;;;;;;;;;;;;;22.32;36.71;100451.31;4429092;32;33978;-82
2022/04/28 12:07:53;;;;;;;;;;;;;;;22.49;36.84;100449.94;4444984;32;34186;-81
2022/04/28 12:15:57;;;;;;;;;;;;;;;22.18;38.14;100448.75;4442545;32;34996;-80
2022/04/28 12:21:18;;;;;;;;;;;;;;;22.59;38.35;100446.81;4445208;32;33764;-80
2022/04/28 12:23:46;;;;;;;;;;;;;;;22.94;37.47;100445.62;4427936;32;32516;-79
2022/04/28 12:26:13;;;;;;;;;;;;;;;23.03;35.60;100447.09;4428747;32;35248;-79
2022/04/28 12:28:42;;;;;;;;;;;;;;;22.76;36.11;100439.97;4419510;32;35649;-81
2022/04/28 12:31:14;;;;;;;;;;;;;;;22.61;37.48;100442.88;4428967;32;33632;-81
2022/04/28 12:34:30;;;;;;;;;;;;;;;22.75;36.73;100441.81;4444469;32;33932;-80
2022/04/28 12:37:00;;;;;;;;;;;;;;;22.84;36.46;100443.31;4428619;32;35749;-80
2022/04/28 12:39:31;;;;;;;;;;;;;;;22.83;37.18;100444.34;4426484;32;34452;-82
2022/04/28 12:42:06;;;;;;;;;;;;;;;22.63;35.67;100438.06;4427203;32;32871;-81
2022/04/28 12:44:44;;;;;;;;;;;;;;;22.59;35.90;100444.94;4428494;32;34601;-81
2022/04/28 12:47:12;;;;;;;;;;;;;;;22.73;36.18;100441.22;4403728;32;34227;-78
2022/04/28 12:49:43;;;;;;;;;;;;;;;22.50;35.96;100437.19;4442601;32;33611;-80
2022/04/28 12:52:10;;;;;;;;;;;;;;;22.32;36.01;100439.63;4442651;32;33000;-79
2022/04/28 12:54:38;;;;;;;;;;;;;;;22.23;36.93;100441.69;4428928;32;34341;-78
2022/04/28 12:57:07;;;;;;;;;;;;;;;22.14;37.83;100439.34;4442506;32;34621;-81
2022/04/28 12:59:36;;;;;;;;;;;;;;;22.53;37.08;100440.34;4428389;32;34649;-79
2022/04/28 13:02:05;;;;;;;;;;;;;;;22.73;37.15;100440.37;4415019;32;33228;-78
2022/04/28 13:04:36;;;;;;;;;;;;;;;22.83;35.45;100440.81;4429095;32;33970;-80
2022/04/28 13:07:08;;;;;;;;;;;;;;;22.98;34.71;100436.84;4427632;32;35782;-80
2022/04/28 13:09:35;;;;;;;;;;;;;;;22.99;34.74;100437.66;4429306;32;34449;-80
2022/04/28 13:12:03;;;;;;;;;;;;;;;23.14;35.72;100433.75;4425959;32;32801;-80
2022/04/28 13:14:31;;;;;;;;;;;;;;;22.94;36.05;100437.47;4430199;32;32134;-79
2022/04/28 13:16:59;;;;;;;;;;;;;;;23.33;33.27;100432.91;4427344;32;35475;-79
2022/04/28 13:19:27;;;;;;;;;;;;;;;23.11;34.95;100436.84;4428935;32;34682;-80
2022/04/28 13:21:54;;;;;;;;;;;;;;;23.30;34.61;100438.75;4429122;32;32677;-81
2022/04/28 13:24:22;;;;;;;;;;;;;;;23.25;34.59;100437.72;4403186;32;32461;-78
2022/04/28 13:26:49;;;;;;;;;;;;;;;23.29;33.10;100442.50;4426448;32;33440;-79
2022/04/28 13:29:16;;;;;;;;;;;;;;;23.45;34.15;100430.37;4429858;32;34384;-80
2022/04/28 13:31:44;;;;;;;;;;;;;;;23.35;32.93;100430.81;4440758;32;33262;-80
2022/04/28 13:34:11;;;;;;;;;;;;;;;23.78;32.39;100431.97;4430064;32;33680;-80
2022/04/28 13:36:39;;;;;;;;;;;;;;;23.97;30.53;100431.94;4427120;32;33922;-80
2022/04/28 13:39:06;;;;;;;;;;;;;;;24.97;30.64;100426.56;4428604;32;34502;-80
2022/04/28 13:41:34;;;;;;;;;;;;;;;25.68;29.33;100414.19;4441320;32;33101;-80
2022/04/28 13:44:01;;;;;;;;;;;;;;;26.05;28.77;100419.41;4428038;32;35500;-78
2022/04/28 13:46:28;;;;;;;;;;;;;;;26.95;30.49;100419.19;4441891;32;35128;-81
2022/04/28 13:48:56;;;;;;;;;;;;;;;27.34;29.84;100413.94;4416557;32;34525;-79
2022/04/28 13:51:24;;;;;;;;;;;;;;;28.04;29.83;100406.50;4426481;32;32451;-80
2022/04/28 13:53:51;;;;;;;;;;;;;;;28.05;27.29;100405.41;4429301;32;33520;-80
2022/04/28 13:56:18;;;;;;;;;;;;;;;28.09;27.26;100403.84;4442012;32;34727;-80
2022/04/28 13:58:46;;;;;;;;;;;;;;;28.28;27.23;100408.06;4427766;32;34369;-79
2022/04/28 14:01:13;;;;;;;;;;;;;;;28.37;25.18;100401.16;4443366;32;32856;-79
2022/04/28 14:03:41;;;;;;;;;;;;;;;28.21;24.58;100404.66;4440442;32;33489;-79
2022/04/28 14:06:09;;;;;;;;;;;;;;;28.25;25.50;100394.88;4428947;32;34213;-81
2022/04/28 14:08:36;;;;;;;;;;;;;;;28.01;26.26;100406.94;4428649;32;33172;-80
2022/04/28 14:11:05;;;;;;;;;;;;;;;27.43;26.62;100401.56;4427181;32;33405;-80
2022/04/28 14:13:32;;;;;;;;;;;;;;;27.36;25.03;100402.72;4415782;32;34136;-77
2022/04/28 14:16:00;;;;;;;;;;;;;;;27.17;26.24;100401.19;4429694;32;35421;-80
2022/04/28 14:18:29;;;;;;;;;;;;;;;26.92;25.17;100402.44;4412865;32;33845;-80
2022/04/28 14:20:57;;;;;;;;;;;;;;;26.75;28.26;100405.03;4428970;32;32533;-79
2022/04/28 14:23:25;;;;;;;;;;;;;;;27.19;27.41;100401.81;4417303;32;34949;-80
2022/04/28 14:25:53;;;;;;;;;;;;;;;25.73;31.01;100401.53;4429038;32;35129;-78
2022/04/28 14:28:20;;;;;;;;;;;;;;;26.35;29.75;100401.19;4431679;32;33615;-81
2022/04/28 14:30:47;;;;;;;;;;;;;;;26.95;26.64;100391.88;4430385;32;33356;-78
2022/04/28 14:33:35;;;;;;;;;;;;;;;27.23;28.26;100400.25;4422943;32;33467;-79
2022/04/28 14:36:02;;;;;;;;;;;;;;;27.29;27.19;100399.31;4416136;32;35867;-80
2022/04/28 14:38:31;;;;;;;;;;;;;;;27.25;27.14;100398.09;4416791;32;34708;-79
2022/04/28 14:40:59;;;;;;;;;;;;;;;26.79;25.72;100402.66;4419125;32;32940;-78
2022/04/28 14:43:27;;;;;;;;;;;;;;;26.36;26.25;100396.56;4429743;32;33389;-79
2022/04/28 14:45:54;;;;;;;;;;;;;;;25.95;27.49;100397.31;4426153;32;34891;-80
2022/04/28 14:48:22;;;;;;;;;;;;;;;26.12;27.36;100400.25;4430404;32;34344;-77
2022/04/28 14:53:44;;;;;;;;;;;;;;;27.34;27.22;100392.06;4433994;32;34750;-78
2022/04/28 14:56:11;;;;;;;;;;;;;;;28.00;24.45;100391.62;4431863;32;35349;-80
2022/04/28 14:58:38;;;;;;;;;;;;;;;27.79;24.63;100390.38;4443193;32;35310;-78
2022/04/28 15:01:09;;;;;;;;;;;;;;;27.97;24.68;100381.16;4430719;32;33364;-79
2022/04/28 15:03:38;;;;;;;;;;;;;;;28.23;26.62;100383.34;4431680;32;33706;-80
2022/04/28 15:16:00;;;;;;;;;;;;;;;;;;;;;
2022/04/28 15:22:51;;;;;;;;;;;;;;;27.17;25.33;100400.38;4384339;32;33828;-83
2022/04/28 15:32:17;;;;;;;;;;;;;;;27.30;26.69;100395.50;4332812;32;34807;-81
2022/04/28 16:06:02;;;;;;;;;;;;;;;26.43;26.90;100410.94;4171220;34;32939;-82